| time (UTC) | temp F | wind direction | speed MPH | gust MPH | rain 1hr in | rain 24hr in | rain mn in | humidity % | barometer mb |
| 20260510064318 | 52 | 346 | 1.0 | 2.0 | 0.00 | 0.00 | 0.00 | 81 | 1014.4 |
| 20260510063318 | 51 | 291 | 0.0 | 2.0 | 0.00 | 0.00 | 0.00 | 83 | 1014.3 |
| 20260510062318 | 51 | 291 | 1.0 | 3.0 | 0.00 | 0.00 | 0.00 | 84 | 1014.3 |
| 20260510061318 | 51 | 16 | 1.0 | 3.0 | 0.00 | 0.00 | 0.00 | 84 | 1014.4 |
| 20260510060318 | 51 | 16 | 1.0 | 3.0 | 0.00 | 0.00 | 0.00 | 85 | 1014.5 |
| 20260510055318 | 50 | 22 | 1.0 | 3.0 | 0.00 | 0.00 | 0.00 | 86 | 1014.5 |
| 20260510054318 | 48 | 45 | 0.0 | 0.0 | 0.00 | 0.00 | 0.00 | 87 | 1014.5 |
| 20260510053318 | 48 | 271 | 0.0 | 2.0 | 0.00 | 0.00 | 0.00 | 86 | 1014.6 |
| 20260510052318 | 47 | 257 | 0.0 | 0.0 | 0.00 | 0.00 | 0.00 | 86 | 1014.7 |
| 20260510051318 | 46 | 253 | 0.0 | 0.0 | 0.00 | 0.00 | 0.00 | 84 | 1014.6 |
| 20260510050318 | 44 | 252 | 0.0 | 0.0 | 0.00 | 0.00 | 0.00 | 85 | 1014.7 |
| 20260510045318 | 44 | 253 | 0.0 | 0.0 | 0.00 | 0.00 | 0.00 | 85 | 1014.7 |
| 20260510044318 | 43 | 254 | 0.0 | 0.0 | 0.00 | 0.00 | 0.00 | 86 | 1014.8 |
| 20260510043318 | 44 | 155 | 0.0 | 0.0 | 0.00 | 0.00 | 0.00 | 86 | 1014.8 |
| 20260510042318 | 44 | 155 | 0.0 | 0.0 | 0.00 | 0.00 | 0.00 | 86 | 1014.8 |
| 20260510041318 | 44 | 154 | 1.0 | 3.0 | 0.00 | 0.00 | 0.00 | 85 | 1014.8 |
| 20260510040318 | 44 | 188 | 1.0 | 1.0 | 0.00 | 0.00 | 0.00 | 86 | 1014.9 |
| 20260510035318 | 43 | 187 | 1.0 | 3.0 | 0.00 | 0.00 | 0.00 | 86 | 1014.9 |
| 20260510034318 | 44 | 231 | 1.0 | 4.0 | 0.00 | 0.00 | 0.00 | 87 | 1015.1 |
| 20260510033318 | 44 | 138 | 0.0 | 0.0 | 0.00 | 0.01 | 0.00 | 86 | 1014.9 |
| 20260510032318 | 44 | 138 | 0.0 | 0.0 | 0.00 | 0.01 | 0.00 | 86 | 1015.2 |
| 20260510031318 | 44 | 137 | 0.0 | 0.0 | 0.00 | 0.01 | 0.00 | 87 | 1015.1 |
| 20260510030318 | 44 | 137 | 1.0 | 1.0 | 0.00 | 0.01 | 0.00 | 87 | 1015.1 |
| 20260510025318 | 45 | 120 | 1.0 | 3.0 | 0.00 | 0.01 | 0.00 | 86 | 1015.2 |
| 20260510024318 | 44 | 157 | 0.0 | 0.0 | 0.00 | 0.01 | 0.00 | 87 | 1015.2 |
| 20260510023318 | 45 | 157 | 0.0 | 1.0 | 0.00 | 0.01 | 0.00 | 87 | 1015.4 |
| 20260510022318 | 45 | 73 | 0.0 | 2.0 | 0.00 | 0.01 | 0.00 | 87 | 1015.4 |
| 20260510021318 | 45 | 325 | 0.0 | 0.0 | 0.00 | 0.01 | 0.00 | 87 | 1015.5 |
| 20260510020318 | 45 | 325 | 0.0 | 0.0 | 0.00 | 0.01 | 0.00 | 87 | 1015.5 |
| 20260510015318 | 45 | 325 | 0.0 | 0.0 | 0.00 | 0.01 | 0.00 | 87 | 1015.7 |
| 20260510014318 | 45 | 325 | 0.0 | 0.0 | 0.00 | 0.01 | 0.00 | 86 | 1015.7 |
| 20260510013318 | 46 | 325 | 0.0 | 0.0 | 0.00 | 0.01 | 0.00 | 86 | 1015.8 |
| 20260510012318 | 47 | 325 | 0.0 | 0.0 | 0.00 | 0.01 | 0.00 | 85 | 1015.8 |
| 20260510011318 | 47 | 24 | 1.0 | 2.0 | 0.00 | 0.01 | 0.00 | 85 | 1015.8 |
| 20260510010318 | 47 | 58 | 1.0 | 4.0 | 0.00 | 0.01 | 0.00 | 84 | 1015.8 |
| 20260510005318 | 48 | 95 | 3.0 | 8.0 | 0.00 | 0.01 | 0.00 | 84 | 1015.7 |
| 20260510004318 | 48 | 65 | 4.0 | 8.0 | 0.00 | 0.01 | 0.00 | 84 | 1015.8 |
| 20260510003318 | 48 | 73 | 3.0 | 8.0 | 0.00 | 0.01 | 0.00 | 84 | 1015.9 |
| 20260510002318 | 48 | 89 | 3.0 | 7.0 | 0.00 | 0.01 | 0.00 | 84 | 1016.2 |
| 20260510001318 | 48 | 84 | 3.0 | 5.0 | 0.00 | 0.01 | 0.00 | 84 | 1016.5 |
| 20260510000319 | 48 | 77 | 3.0 | 5.0 | 0.00 | 0.01 | 0.00 | 84 | 1016.6 |
| 20260509235319 | 48 | 98 | 4.0 | 9.0 | 0.00 | 0.01 | 0.00 | 84 | 1016.5 |
| 20260509234319 | 48 | 94 | 3.0 | 4.0 | 0.00 | 0.01 | 0.00 | 84 | 1016.7 |
| 20260509233319 | 48 | 109 | 4.0 | 8.0 | 0.00 | 0.01 | 0.00 | 85 | 1016.8 |
| 20260509232319 | 48 | 82 | 3.0 | 8.0 | 0.00 | 0.01 | 0.00 | 85 | 1016.9 |
| 20260509231319 | 48 | 90 | 4.0 | 7.0 | 0.00 | 0.01 | 0.00 | 85 | 1017.0 |
| 20260509230319 | 48 | 76 | 3.0 | 7.0 | 0.00 | 0.01 | 0.00 | 85 | 1017.0 |
| 20260509225319 | 49 | 96 | 2.0 | 4.0 | 0.00 | 0.01 | 0.00 | 85 | 1017.3 |
| 20260509224319 | 49 | 84 | 1.0 | 5.0 | 0.00 | 0.01 | 0.00 | 84 | 1017.3 |
| 20260509223319 | 50 | 81 | 1.0 | 2.0 | 0.00 | 0.01 | 0.00 | 83 | 1017.2 |
| 20260509222319 | 50 | 86 | 4.0 | 6.0 | 0.00 | 0.01 | 0.00 | 83 | 1017.3 |
| 20260509221319 | 50 | 102 | 3.0 | 7.0 | 0.00 | 0.01 | 0.01 | 83 | 1017.3 |
| 20260509220319 | 50 | 103 | 3.0 | 7.0 | 0.00 | 0.01 | 0.01 | 83 | 1017.7 |
| 20260509215319 | 50 | 88 | 3.0 | 7.0 | 0.00 | 0.01 | 0.01 | 82 | 1017.7 |
| 20260509214319 | 51 | 88 | 2.0 | 5.0 | 0.00 | 0.01 | 0.01 | 81 | 1017.8 |
| 20260509213319 | 51 | 98 | 1.0 | 2.0 | 0.00 | 0.01 | 0.01 | 79 | 1017.8 |
| 20260509212319 | 52 | 74 | 2.0 | 4.0 | 0.00 | 0.01 | 0.01 | 79 | 1017.7 |
| 20260509211319 | 52 | 93 | 3.0 | 5.0 | 0.00 | 0.01 | 0.01 | 78 | 1017.8 |
| 20260509210319 | 52 | 74 | 4.0 | 8.0 | 0.00 | 0.01 | 0.01 | 78 | 1017.6 |
| 20260509205319 | 52 | 81 | 4.0 | 9.0 | 0.00 | 0.01 | 0.01 | 79 | 1017.8 |
| 20260509204319 | 52 | 68 | 4.0 | 8.0 | 0.00 | 0.01 | 0.01 | 79 | 1017.9 |
| 20260509203319 | 52 | 97 | 3.0 | 6.0 | 0.00 | 0.01 | 0.01 | 80 | 1018.1 |
| 20260509202319 | 52 | 109 | 3.0 | 7.0 | 0.00 | 0.01 | 0.01 | 80 | 1018.1 |
| 20260509201319 | 53 | 94 | 3.0 | 5.0 | 0.00 | 0.01 | 0.01 | 79 | 1018.1 |
| 20260509200319 | 53 | 95 | 4.0 | 7.0 | 0.00 | 0.01 | 0.01 | 79 | 1017.9 |
| 20260509195319 | 53 | 82 | 3.0 | 8.0 | 0.00 | 0.01 | 0.01 | 79 | 1017.8 |
| 20260509194319 | 53 | 95 | 3.0 | 6.0 | 0.00 | 0.01 | 0.01 | 79 | 1017.9 |
| 20260509193319 | 53 | 84 | 4.0 | 7.0 | 0.00 | 0.01 | 0.01 | 79 | 1017.8 |
| 20260509192319 | 54 | 78 | 2.0 | 7.0 | 0.00 | 0.01 | 0.01 | 79 | 1017.7 |
| 20260509191319 | 54 | 107 | 0.0 | 3.0 | 0.00 | 0.01 | 0.01 | 79 | 1017.8 |
| 20260509190319 | 55 | 107 | 1.0 | 3.0 | 0.00 | 0.01 | 0.01 | 78 | 1017.7 |
| 20260509185319 | 55 | 99 | 2.0 | 5.0 | 0.00 | 0.01 | 0.01 | 77 | 1017.5 |
| 20260509184319 | 56 | 79 | 3.0 | 4.0 | 0.00 | 0.01 | 0.01 | 76 | 1017.4 |
| 20260509183319 | 57 | 88 | 2.0 | 4.0 | 0.00 | 0.01 | 0.01 | 74 | 1017.4 |
| 20260509182319 | 57 | 76 | 3.0 | 4.0 | 0.00 | 0.01 | 0.01 | 73 | 1017.3 |
| 20260509181319 | 58 | 80 | 4.0 | 5.0 | 0.00 | 0.01 | 0.01 | 72 | 1017.3 |
| 20260509180319 | 58 | 90 | 4.0 | 7.0 | 0.00 | 0.01 | 0.01 | 70 | 1017.2 |
| 20260509175319 | 58 | 86 | 4.0 | 7.0 | 0.00 | 0.01 | 0.01 | 70 | 1017.3 |
| 20260509174319 | 58 | 71 | 3.0 | 7.0 | 0.00 | 0.01 | 0.01 | 70 | 1017.4 |
| 20260509173319 | 59 | 67 | 4.0 | 5.0 | 0.00 | 0.01 | 0.01 | 68 | 1017.4 |
| 20260509172319 | 59 | 46 | 5.0 | 10.0 | 0.00 | 0.01 | 0.01 | 67 | 1017.2 |
| 20260509171319 | 59 | 45 | 4.0 | 9.0 | 0.00 | 0.01 | 0.01 | 66 | 1017.4 |
| 20260509170319 | 60 | 75 | 3.0 | 6.0 | 0.00 | 0.01 | 0.01 | 65 | 1017.4 |
| 20260509165319 | 60 | 56 | 2.0 | 4.0 | 0.00 | 0.01 | 0.01 | 65 | 1017.3 |
| 20260509164320 | 60 | 54 | 1.0 | 8.0 | 0.00 | 0.01 | 0.01 | 63 | 1017.5 |
| 20260509163320 | 60 | 46 | 2.0 | 3.0 | 0.00 | 0.01 | 0.01 | 63 | 1017.5 |
| 20260509162320 | 61 | 38 | 1.0 | 3.0 | 0.00 | 0.01 | 0.01 | 63 | 1017.6 |
| 20260509161320 | 61 | 39 | 2.0 | 3.0 | 0.00 | 0.01 | 0.01 | 62 | 1017.6 |
| 20260509160320 | 61 | 32 | 3.0 | 5.0 | 0.00 | 0.01 | 0.01 | 60 | 1017.6 |
| 20260509155320 | 62 | 32 | 3.0 | 9.0 | 0.00 | 0.01 | 0.01 | 58 | 1017.8 |
| 20260509154320 | 63 | 355 | 2.0 | 6.0 | 0.00 | 0.01 | 0.01 | 58 | 1017.8 |
| 20260509153320 | 64 | 329 | 2.0 | 4.0 | 0.00 | 0.01 | 0.01 | 57 | 1017.9 |
| 20260509152320 | 63 | 290 | 4.0 | 8.0 | 0.00 | 0.01 | 0.01 | 55 | 1017.8 |
| 20260509151320 | 63 | 259 | 2.0 | 7.0 | 0.00 | 0.01 | 0.01 | 57 | 1017.9 |
| 20260509150320 | 62 | 98 | 2.0 | 5.0 | 0.00 | 0.01 | 0.01 | 56 | 1018.0 |
| 20260509145320 | 63 | 43 | 3.0 | 9.0 | 0.00 | 0.01 | 0.01 | 55 | 1018.1 |
| 20260509144320 | 63 | 27 | 3.0 | 7.0 | 0.00 | 0.01 | 0.01 | 56 | 1018.2 |
| 20260509143320 | 63 | 308 | 2.0 | 8.0 | 0.00 | 0.01 | 0.01 | 58 | 1018.3 |
| 20260509142320 | 62 | 21 | 2.0 | 2.0 | 0.00 | 0.01 | 0.01 | 59 | 1018.4 |
| 20260509141320 | 62 | 267 | 2.0 | 6.0 | 0.00 | 0.01 | 0.01 | 58 | 1018.5 |
| 20260509140320 | 62 | 84 | 3.0 | 7.0 | 0.00 | 0.01 | 0.01 | 58 | 1018.7 |
| 20260509135320 | 62 | 269 | 3.0 | 8.0 | 0.00 | 0.01 | 0.01 | 60 | 1018.7 |
| 20260509134320 | 62 | 14 | 2.0 | 5.0 | 0.00 | 0.01 | 0.01 | 64 | 1018.9 |
| 20260509133320 | 62 | 269 | 2.0 | 10.0 | 0.00 | 0.01 | 0.01 | 59 | 1019.0 |
| 20260509132320 | 61 | 63 | 3.0 | 6.0 | 0.00 | 0.01 | 0.01 | 64 | 1019.0 |
| 20260509131320 | 60 | 43 | 5.0 | 11.0 | 0.00 | 0.01 | 0.01 | 62 | 1019.2 |
| 20260509130320 | 61 | 34 | 2.0 | 3.0 | 0.00 | 0.01 | 0.01 | 65 | 1019.4 |
| 20260509125320 | 60 | 163 | 4.0 | 11.0 | 0.00 | 0.01 | 0.01 | 65 | 1019.5 |
| 20260509124320 | 60 | 36 | 3.0 | 6.0 | 0.00 | 0.01 | 0.01 | 68 | 1019.6 |
| 20260509123320 | 59 | 71 | 3.0 | 8.0 | 0.00 | 0.02 | 0.01 | 67 | 1019.7 |
| 20260509122320 | 59 | 42 | 3.0 | 10.0 | 0.00 | 0.02 | 0.01 | 65 | 1019.8 |
| 20260509121320 | 59 | 323 | 3.0 | 3.0 | 0.00 | 0.02 | 0.01 | 67 | 1019.9 |
| 20260509120320 | 59 | 56 | 2.0 | 8.0 | 0.00 | 0.02 | 0.01 | 65 | 1020.0 |
| 20260509115320 | 59 | 155 | 3.0 | 8.0 | 0.00 | 0.02 | 0.01 | 70 | 1020.1 |
| 20260509114320 | 58 | 42 | 3.0 | 9.0 | 0.00 | 0.02 | 0.01 | 70 | 1020.2 |
| 20260509113320 | 58 | 18 | 2.0 | 8.0 | 0.00 | 0.02 | 0.01 | 71 | 1020.3 |
| 20260509112320 | 58 | 25 | 3.0 | 6.0 | 0.00 | 0.02 | 0.01 | 72 | 1020.3 |
| 20260509111320 | 57 | 105 | 2.0 | 6.0 | 0.00 | 0.02 | 0.01 | 73 | 1020.5 |
| 20260509110320 | 56 | 52 | 4.0 | 6.0 | 0.00 | 0.02 | 0.01 | 73 | 1020.4 |
| 20260509105320 | 57 | 48 | 4.0 | 7.0 | 0.00 | 0.02 | 0.01 | 73 | 1020.5 |
| 20260509104320 | 57 | 113 | 4.0 | 10.0 | 0.00 | 0.02 | 0.01 | 74 | 1020.5 |
| 20260509103320 | 57 | 20 | 4.0 | 9.0 | 0.00 | 0.02 | 0.01 | 73 | 1020.7 |
| 20260509102320 | 57 | 53 | 3.0 | 9.0 | 0.00 | 0.02 | 0.01 | 74 | 1020.7 |
| 20260509101320 | 56 | 346 | 4.0 | 9.0 | 0.00 | 0.02 | 0.01 | 76 | 1020.7 |
| 20260509100320 | 56 | 63 | 5.0 | 8.0 | 0.00 | 0.02 | 0.01 | 78 | 1020.6 |
| 20260509095320 | 55 | 88 | 4.0 | 8.0 | 0.00 | 0.02 | 0.01 | 79 | 1020.7 |
| 20260509094320 | 55 | 76 | 3.0 | 8.0 | 0.00 | 0.02 | 0.01 | 80 | 1020.7 |
| 20260509093320 | 55 | 51 | 2.0 | 7.0 | 0.00 | 0.02 | 0.01 | 80 | 1020.7 |
| 20260509092320 | 55 | 313 | 3.0 | 7.0 | 0.00 | 0.02 | 0.01 | 83 | 1020.8 |
| 20260509091321 | 54 | 55 | 4.0 | 9.0 | 0.00 | 0.02 | 0.01 | 81 | 1020.8 |
| 20260509090321 | 54 | 13 | 3.0 | 8.0 | 0.00 | 0.02 | 0.01 | 83 | 1020.8 |
| 20260509085321 | 54 | 40 | 2.0 | 4.0 | 0.00 | 0.02 | 0.01 | 84 | 1020.8 |
| 20260509084321 | 53 | 44 | 2.0 | 4.0 | 0.00 | 0.02 | 0.01 | 84 | 1020.9 |
| 20260509083321 | 53 | 27 | 3.0 | 5.0 | 0.00 | 0.02 | 0.01 | 84 | 1020.9 |
| 20260509082321 | 53 | 55 | 3.0 | 5.0 | 0.00 | 0.02 | 0.01 | 84 | 1020.9 |
| 20260509081321 | 52 | 45 | 3.0 | 6.0 | 0.00 | 0.02 | 0.01 | 85 | 1020.9 |
| 20260509080321 | 52 | 43 | 1.0 | 6.0 | 0.00 | 0.02 | 0.01 | 86 | 1020.9 |
| 20260509075321 | 52 | 35 | 0.0 | 0.0 | 0.00 | 0.02 | 0.01 | 87 | 1020.8 |
| 20260509074321 | 52 | 34 | 1.0 | 4.0 | 0.00 | 0.02 | 0.01 | 87 | 1020.8 |
| 20260509073321 | 51 | 40 | 2.0 | 3.0 | 0.00 | 0.03 | 0.01 | 87 | 1020.9 |
| 20260509072321 | 51 | 49 | 0.0 | 4.0 | 0.00 | 0.03 | 0.01 | 87 | 1020.8 |
| 20260509071321 | 51 | 47 | 1.0 | 3.0 | 0.00 | 0.03 | 0.01 | 87 | 1020.8 |
| 20260509070321 | 50 | 46 | 1.0 | 3.0 | 0.00 | 0.03 | 0.01 | 86 | 1020.8 |
| 20260509065321 | 50 | 97 | 0.0 | 4.0 | 0.00 | 0.03 | 0.01 | 85 | 1020.9 |